sensor_id;sensor_type;location;lat;lon;timestamp;pressure;altitude;pressure_sealevel;temperature;humidity
38191;BME280;25191;47.510;19.124;2023-03-26T00:08:34;99787.72;;;22.74;46.33
38191;BME280;25191;47.510;19.124;2023-03-26T00:18:35;99782.44;;;22.74;46.32
38191;BME280;25191;47.510;19.124;2023-03-26T00:28:41;99772.88;;;22.73;46.43
38191;BME280;25191;47.510;19.124;2023-03-26T00:38:43;99781.91;;;22.70;46.39
38191;BME280;25191;47.510;19.124;2023-03-26T00:48:45;99776.47;;;22.71;46.51
38191;BME280;25191;47.510;19.124;2023-03-26T00:58:46;99768.88;;;22.68;46.43
38191;BME280;25191;47.510;19.124;2023-03-26T01:08:50;99772.47;;;22.67;46.60
38191;BME280;25191;47.510;19.124;2023-03-26T01:18:52;99758.56;;;22.65;46.86
38191;BME280;25191;47.510;19.124;2023-03-26T01:28:55;99769.28;;;22.64;46.57
38191;BME280;25191;47.510;19.124;2023-03-26T01:39:11;99773.75;;;22.63;46.95
38191;BME280;25191;47.510;19.124;2023-03-26T01:49:18;99780.69;;;22.64;46.85
38191;BME280;25191;47.510;19.124;2023-03-26T02:09:58;99781.66;;;22.63;47.15
38191;BME280;25191;47.510;19.124;2023-03-26T02:20:02;99784.31;;;22.63;46.98
38191;BME280;25191;47.510;19.124;2023-03-26T02:30:08;99786.25;;;22.61;47.14
38191;BME280;25191;47.510;19.124;2023-03-26T02:40:09;99775.69;;;22.61;46.96
38191;BME280;25191;47.510;19.124;2023-03-26T02:50:10;99774.16;;;22.59;47.03
38191;BME280;25191;47.510;19.124;2023-03-26T03:00:11;99761.78;;;22.59;47.16
38191;BME280;25191;47.510;19.124;2023-03-26T03:10:16;99776.09;;;22.57;47.28
38191;BME280;25191;47.510;19.124;2023-03-26T03:20:21;99767.66;;;22.53;47.41
38191;BME280;25191;47.510;19.124;2023-03-26T03:30:21;99763.34;;;22.52;47.28
38191;BME280;25191;47.510;19.124;2023-03-26T03:40:22;99771.94;;;22.54;47.25
38191;BME280;25191;47.510;19.124;2023-03-26T03:50:23;99783.47;;;22.53;47.56
38191;BME280;25191;47.510;19.124;2023-03-26T04:00:24;99778.19;;;22.53;47.57
38191;BME280;25191;47.510;19.124;2023-03-26T04:10:37;99775.72;;;22.51;47.55
38191;BME280;25191;47.510;19.124;2023-03-26T04:20:41;99791.53;;;22.51;47.71
38191;BME280;25191;47.510;19.124;2023-03-26T04:30:45;99781.97;;;22.50;47.62
38191;BME280;25191;47.510;19.124;2023-03-26T04:40:45;99776.69;;;22.50;47.50
38191;BME280;25191;47.510;19.124;2023-03-26T04:50:46;99787.38;;;22.49;47.42
38191;BME280;25191;47.510;19.124;2023-03-26T05:00:47;99791.81;;;22.48;47.75
38191;BME280;25191;47.510;19.124;2023-03-26T05:10:48;99780.44;;;22.48;47.74
38191;BME280;25191;47.510;19.124;2023-03-26T05:20:49;99778.78;;;22.47;47.44
38191;BME280;25191;47.510;19.124;2023-03-26T05:30:50;99781.25;;;22.48;47.54
38191;BME280;25191;47.510;19.124;2023-03-26T05:41:05;99773.34;;;22.48;47.56
38191;BME280;25191;47.510;19.124;2023-03-26T05:51:07;99776.00;;;22.38;39.29
38191;BME280;25191;47.510;19.124;2023-03-26T06:01:10;99783.25;;;21.97;33.15
38191;BME280;25191;47.510;19.124;2023-03-26T06:11:18;99780.44;;;21.69;31.45
38191;BME280;25191;47.510;19.124;2023-03-26T06:21:19;99779.97;;;21.54;30.44
38191;BME280;25191;47.510;19.124;2023-03-26T06:31:20;99767.28;;;21.28;29.86
38191;BME280;25191;47.510;19.124;2023-03-26T06:41:20;99771.84;;;21.67;33.61
38191;BME280;25191;47.510;19.124;2023-03-26T06:51:21;99772.81;;;21.86;37.26
38191;BME280;25191;47.510;19.124;2023-03-26T07:01:21;99779.75;;;21.97;39.73
38191;BME280;25191;47.510;19.124;2023-03-26T07:11:22;99765.19;;;22.02;41.52
38191;BME280;25191;47.510;19.124;2023-03-26T07:21:30;99754.78;;;22.11;42.09
38191;BME280;25191;47.510;19.124;2023-03-26T07:31:51;99755.06;;;22.17;42.89
38191;BME280;25191;47.510;19.124;2023-03-26T07:52:20;99757.97;;;22.24;42.81
38191;BME280;25191;47.510;19.124;2023-03-26T08:23:21;99765.19;;;22.02;34.54
38191;BME280;25191;47.510;19.124;2023-03-26T08:33:27;99763.38;;;22.03;33.86
38191;BME280;25191;47.510;19.124;2023-03-26T08:43:37;99754.50;;;22.04;34.00
38191;BME280;25191;47.510;19.124;2023-03-26T09:56:13;99695.38;;;22.06;36.41
38191;BME280;25191;47.510;19.124;2023-03-26T10:16:22;99650.25;;;22.29;39.06
38191;BME280;25191;47.510;19.124;2023-03-26T10:37:03;99645.97;;;22.18;37.03
38191;BME280;25191;47.510;19.124;2023-03-26T10:57:33;99638.84;;;22.29;38.35
38191;BME280;25191;47.510;19.124;2023-03-26T11:07:43;99615.63;;;22.42;39.28
38191;BME280;25191;47.510;19.124;2023-03-26T11:38:37;99561.84;;;22.53;42.47
38191;BME280;25191;47.510;19.124;2023-03-26T11:48:44;99535.25;;;22.46;39.32
38191;BME280;25191;47.510;19.124;2023-03-26T12:08:50;99485.81;;;23.02;47.74
38191;BME280;25191;47.510;19.124;2023-03-26T12:19:08;99463.44;;;23.15;46.47
38191;BME280;25191;47.510;19.124;2023-03-26T12:29:17;99442.09;;;23.26;46.25
38191;BME280;25191;47.510;19.124;2023-03-26T12:49:25;99400.44;;;23.46;44.95
38191;BME280;25191;47.510;19.124;2023-03-26T13:09:55;99378.03;;;23.59;44.18
38191;BME280;25191;47.510;19.124;2023-03-26T13:20:10;99345.69;;;23.65;43.55
38191;BME280;25191;47.510;19.124;2023-03-26T13:40:47;99318.47;;;23.81;43.25
38191;BME280;25191;47.510;19.124;2023-03-26T13:51:36;99300.78;;;23.90;43.26
38191;BME280;25191;47.510;19.124;2023-03-26T14:01:45;99277.53;;;23.93;43.15
38191;BME280;25191;47.510;19.124;2023-03-26T14:22:10;99257.38;;;24.01;43.34
38191;BME280;25191;47.510;19.124;2023-03-26T14:33:10;99238.53;;;24.04;43.97
38191;BME280;25191;47.510;19.124;2023-03-26T14:43:27;99224.47;;;24.11;44.42
38191;BME280;25191;47.510;19.124;2023-03-26T14:53:40;99216.56;;;24.20;44.86
38191;BME280;25191;47.510;19.124;2023-03-26T15:14:16;99195.53;;;24.35;45.19
38191;BME280;25191;47.510;19.124;2023-03-26T15:55:27;99139.69;;;23.30;25.52
38191;BME280;25191;47.510;19.124;2023-03-26T16:36:30;99082.97;;;21.80;26.53
38191;BME280;25191;47.510;19.124;2023-03-26T17:17:53;99075.13;;;22.49;32.23
38191;BME280;25191;47.510;19.124;2023-03-26T17:48:31;99071.53;;;22.66;35.34
38191;BME280;25191;47.510;19.124;2023-03-26T17:58:37;99072.72;;;22.72;36.18
38191;BME280;25191;47.510;19.124;2023-03-26T18:08:55;99072.72;;;22.72;36.71
38191;BME280;25191;47.510;19.124;2023-03-26T18:19:03;99075.19;;;22.74;36.89
38191;BME280;25191;47.510;19.124;2023-03-26T18:29:33;99069.91;;;22.74;37.02
38191;BME280;25191;47.510;19.124;2023-03-26T18:39:38;99046.34;;;22.72;37.18
38191;BME280;25191;47.510;19.124;2023-03-26T18:49:43;99037.44;;;22.73;37.58
38191;BME280;25191;47.510;19.124;2023-03-26T18:59:48;99017.31;;;22.72;38.00
38191;BME280;25191;47.510;19.124;2023-03-26T19:09:50;99005.28;;;22.69;37.65
38191;BME280;25191;47.510;19.124;2023-03-26T19:19:56;98993.72;;;22.70;37.43
38191;BME280;25191;47.510;19.124;2023-03-26T19:29:57;98976.06;;;22.71;37.84
38191;BME280;25191;47.510;19.124;2023-03-26T19:40:12;98974.25;;;22.71;38.29
38191;BME280;25191;47.510;19.124;2023-03-26T19:50:25;98940.28;;;22.68;38.63
38191;BME280;25191;47.510;19.124;2023-03-26T20:00:27;98920.84;;;22.69;38.94
38191;BME280;25191;47.510;19.124;2023-03-26T20:10:28;98892.63;;;22.70;39.03
38191;BME280;25191;47.510;19.124;2023-03-26T20:20:29;98873.16;;;22.71;39.28
38191;BME280;25191;47.510;19.124;2023-03-26T20:30:30;98848.63;;;22.70;39.45
38191;BME280;25191;47.510;19.124;2023-03-26T20:40:31;98836.22;;;22.71;39.45
38191;BME280;25191;47.510;19.124;2023-03-26T20:50:31;98823.84;;;22.71;39.48
38191;BME280;25191;47.510;19.124;2023-03-26T21:00:32;98822.06;;;22.72;39.30
38191;BME280;25191;47.510;19.124;2023-03-26T21:10:32;98814.94;;;22.73;39.65
38191;BME280;25191;47.510;19.124;2023-03-26T21:20:36;98810.66;;;22.71;39.76
38191;BME280;25191;47.510;19.124;2023-03-26T21:30:37;98812.47;;;22.71;40.06
38191;BME280;25191;47.510;19.124;2023-03-26T21:40:37;98868.56;;;22.73;40.03
38191;BME280;25191;47.510;19.124;2023-03-26T21:50:38;98879.44;;;22.70;40.36
38191;BME280;25191;47.510;19.124;2023-03-26T22:00:54;98860.97;;;22.70;40.72
38191;BME280;25191;47.510;19.124;2023-03-26T22:10:56;98849.59;;;22.69;40.98
38191;BME280;25191;47.510;19.124;2023-03-26T22:20:57;98829.47;;;22.68;41.12
38191;BME280;25191;47.510;19.124;2023-03-26T22:31:05;98811.81;;;22.69;40.99
38191;BME280;25191;47.510;19.124;2023-03-26T22:41:06;98809.34;;;22.67;41.40
38191;BME280;25191;47.510;19.124;2023-03-26T22:51:07;98798.13;;;22.65;41.33
38191;BME280;25191;47.510;19.124;2023-03-26T23:01:18;98778.03;;;22.64;41.66
38191;BME280;25191;47.510;19.124;2023-03-26T23:11:20;98773.75;;;22.63;41.88
38191;BME280;25191;47.510;19.124;2023-03-26T23:21:21;98766.81;;;22.62;41.79
38191;BME280;25191;47.510;19.124;2023-03-26T23:31:21;98763.22;;;22.63;41.76
38191;BME280;25191;47.510;19.124;2023-03-26T23:41:24;98745.91;;;22.61;42.01
38191;BME280;25191;47.510;19.124;2023-03-26T23:51:26;98731.06;;;22.60;41.82
